createdAt,value
2023-08-11T00:00:09.161Z,69.94
2023-08-11T00:02:36.935Z,67.38
2023-08-11T00:05:05.150Z,68.41
2023-08-11T00:07:32.471Z,71.38
2023-08-11T00:09:58.902Z,70.43
2023-08-11T00:12:25.352Z,70.99
2023-08-11T00:14:51.805Z,72.38
2023-08-11T00:17:18.251Z,73.57
2023-08-11T00:19:44.673Z,72.14
2023-08-11T00:22:12.467Z,70.95
2023-08-11T00:24:38.906Z,70.83
2023-08-11T00:27:05.789Z,72.93
2023-08-11T00:29:32.542Z,72.52
2023-08-11T00:31:58.994Z,72.20
2023-08-11T00:34:25.509Z,71.57
2023-08-11T00:36:52.140Z,72.81
2023-08-11T00:39:19.899Z,72.02
2023-08-11T00:41:46.325Z,73.86
2023-08-11T00:44:13.060Z,73.56
2023-08-11T00:46:40.244Z,71.59
2023-08-11T00:49:06.682Z,71.44
2023-08-11T00:51:33.170Z,72.06
2023-08-11T00:53:59.991Z,72.40
2023-08-11T00:56:28.096Z,71.06
2023-08-11T00:58:55.736Z,73.03
2023-08-11T01:01:22.292Z,72.83
2023-08-11T01:03:48.849Z,72.80
2023-08-11T01:06:24.288Z,73.96
2023-08-11T01:08:56.990Z,77.10
2023-08-11T01:11:33.921Z,75.74
2023-08-11T01:14:04.819Z,73.06
2023-08-11T01:16:33.850Z,72.43
2023-08-11T01:19:01.167Z,74.66
2023-08-11T01:21:29.030Z,74.16
2023-08-11T01:23:57.463Z,74.97
2023-08-11T01:26:24.020Z,72.74
2023-08-11T01:28:53.649Z,73.04
2023-08-11T01:31:20.245Z,71.66
2023-08-11T01:33:46.689Z,72.86
2023-08-11T01:36:13.148Z,77.70
2023-08-11T01:38:39.784Z,76.91
2023-08-11T01:41:07.572Z,75.75
2023-08-11T01:43:35.501Z,74.28
2023-08-11T01:46:03.211Z,75.54
2023-08-11T01:48:31.290Z,75.58
2023-08-11T01:50:57.869Z,74.84
2023-08-11T01:53:24.600Z,75.49
2023-08-11T01:55:51.680Z,76.23
2023-08-11T01:58:19.781Z,74.43
2023-08-11T02:00:46.248Z,75.78
2023-08-11T02:03:12.749Z,75.88
2023-08-11T02:05:39.394Z,76.84
2023-08-11T02:08:06.752Z,75.90
2023-08-11T02:10:33.201Z,75.03
2023-08-11T02:12:59.662Z,75.35
2023-08-11T02:15:28.270Z,76.37
2023-08-11T02:17:54.819Z,76.27
2023-08-11T02:20:21.371Z,75.08
2023-08-11T02:22:48.430Z,74.81
2023-08-11T02:25:15.202Z,75.26
2023-08-11T02:27:41.814Z,76.56
2023-08-11T02:30:09.424Z,75.22
2023-08-11T02:32:37.697Z,77.21
2023-08-11T02:35:05.397Z,75.40
2023-08-11T02:37:31.916Z,77.79
2023-08-11T02:39:58.371Z,75.60
2023-08-11T02:42:24.794Z,76.15
2023-08-11T02:44:51.450Z,78.58
2023-08-11T02:47:18.085Z,73.88
2023-08-11T02:49:45.840Z,75.55
2023-08-11T02:52:13.293Z,79.99
2023-08-11T02:54:39.753Z,77.86
2023-08-11T02:57:06.186Z,74.20
2023-08-11T02:59:32.652Z,75.63
2023-08-11T03:01:59.094Z,76.52
2023-08-11T03:04:25.524Z,77.09
2023-08-11T03:06:53.309Z,76.32
2023-08-11T03:09:19.745Z,76.14
2023-08-11T03:11:46.179Z,75.21
2023-08-11T03:14:12.649Z,73.10
2023-08-11T03:16:39.187Z,75.71
2023-08-11T03:19:05.679Z,74.09
2023-08-11T03:21:32.165Z,76.35
2023-08-11T03:23:59.919Z,74.59
2023-08-11T03:26:26.375Z,75.94
2023-08-11T03:28:52.906Z,77.30
2023-08-11T03:31:19.346Z,76.81
2023-08-11T03:33:45.777Z,75.43
2023-08-11T03:36:12.322Z,75.03
2023-08-11T03:38:38.754Z,75.47
2023-08-11T03:41:06.525Z,73.75
2023-08-11T03:43:33.019Z,76.00
2023-08-11T03:45:59.469Z,75.56
2023-08-11T03:48:25.923Z,77.32
2023-08-11T03:50:52.575Z,75.40
2023-08-11T03:53:19.028Z,74.70
2023-08-11T03:55:45.544Z,77.30
2023-08-11T03:58:13.652Z,76.20
2023-08-11T04:00:40.256Z,75.75
2023-08-11T04:03:06.836Z,75.87
2023-08-11T04:05:33.550Z,75.65
2023-08-11T04:08:00.015Z,74.25
2023-08-11T04:10:26.502Z,74.15
2023-08-11T04:12:53.000Z,75.83
2023-08-11T04:15:21.918Z,75.98
2023-08-11T04:17:48.466Z,74.79
2023-08-11T04:20:15.074Z,75.30
2023-08-11T04:22:41.844Z,76.52
2023-08-11T04:25:09.439Z,77.74
2023-08-11T04:27:36.267Z,75.98
2023-08-11T04:30:02.858Z,75.00
2023-08-11T04:32:30.668Z,75.76
2023-08-11T04:34:57.144Z,74.50
2023-08-11T04:37:23.659Z,77.39
2023-08-11T04:39:50.299Z,76.68
2023-08-11T04:42:16.774Z,75.17
2023-08-11T04:44:43.686Z,75.18
2023-08-11T04:47:10.585Z,74.90
2023-08-11T04:49:38.384Z,76.45
2023-08-11T04:52:04.989Z,76.07
2023-08-11T04:54:31.453Z,76.21
2023-08-11T04:56:58.090Z,77.71
2023-08-11T04:59:24.534Z,75.82
2023-08-11T05:01:50.980Z,76.47
2023-08-11T05:04:17.947Z,76.60
2023-08-11T05:06:45.878Z,76.61
2023-08-11T05:09:12.307Z,77.83
2023-08-11T05:11:38.788Z,77.61
2023-08-11T05:14:05.269Z,77.82
2023-08-11T05:16:31.764Z,77.61
2023-08-11T05:18:58.248Z,76.11
2023-08-11T05:21:25.588Z,75.20
2023-08-11T05:23:53.362Z,76.62
2023-08-11T05:26:19.832Z,75.12
2023-08-11T05:28:46.274Z,74.71
2023-08-11T05:31:12.767Z,75.02
2023-08-11T05:33:39.226Z,75.67
2023-08-11T05:36:05.947Z,75.96
2023-08-11T05:38:32.429Z,75.13
2023-08-11T05:41:00.233Z,76.11
2023-08-11T05:43:26.697Z,74.69
2023-08-11T05:45:53.182Z,74.39
2023-08-11T05:48:19.667Z,73.01
2023-08-11T05:50:46.268Z,73.27
2023-08-11T05:53:12.860Z,74.16
2023-08-11T05:55:39.622Z,74.37
2023-08-11T05:58:07.420Z,73.35
2023-08-11T06:00:34.015Z,71.65
2023-08-11T06:03:00.757Z,72.95
2023-08-11T06:05:27.407Z,73.56
2023-08-11T06:08:05.312Z,70.58
2023-08-11T06:10:33.603Z,69.86
2023-08-11T06:13:00.152Z,68.78
2023-08-11T06:15:28.363Z,68.22
2023-08-11T06:17:54.857Z,68.72
2023-08-11T06:20:34.463Z,67.67
2023-08-11T06:23:07.231Z,66.15
2023-08-11T06:25:33.683Z,66.95
2023-08-11T06:28:00.118Z,67.86
2023-08-11T06:30:28.143Z,65.87
2023-08-11T06:32:54.672Z,67.78
2023-08-11T06:35:21.507Z,72.72
2023-08-11T06:37:48.166Z,68.89
2023-08-11T06:40:14.786Z,66.30
2023-08-11T06:42:41.262Z,64.69
2023-08-11T06:45:08.626Z,63.89
2023-08-11T06:47:36.634Z,66.99
2023-08-11T06:50:03.692Z,65.59
2023-08-11T06:52:30.376Z,65.17
2023-08-11T06:54:56.915Z,67.15
2023-08-11T06:57:24.102Z,65.81
2023-08-11T06:59:50.694Z,64.68
2023-08-11T07:02:17.253Z,64.93
2023-08-11T07:04:45.370Z,65.58
2023-08-11T07:07:11.984Z,66.03
2023-08-11T07:09:38.436Z,65.08
2023-08-11T07:12:05.510Z,63.28
2023-08-11T07:14:32.004Z,63.89
2023-08-11T07:16:58.488Z,64.56
2023-08-11T07:19:25.044Z,64.36
2023-08-11T07:21:52.977Z,61.76
2023-08-11T07:24:19.452Z,61.24
2023-08-11T07:26:45.897Z,62.77
2023-08-11T07:29:12.365Z,63.10
2023-08-11T07:31:38.817Z,64.12
2023-08-11T07:34:05.240Z,63.55
2023-08-11T07:36:31.724Z,60.61
2023-08-11T07:39:12.781Z,61.08
2023-08-11T07:41:45.990Z,58.10
2023-08-11T07:44:12.463Z,59.17
2023-08-11T07:46:38.953Z,60.71
2023-08-11T07:49:05.680Z,57.08
2023-08-11T07:51:32.150Z,57.64
2023-08-11T07:54:00.074Z,59.72
2023-08-11T07:56:26.675Z,56.89
2023-08-11T07:58:53.124Z,58.73
2023-08-11T08:01:19.715Z,58.25
2023-08-11T08:03:46.311Z,60.27
2023-08-11T08:06:12.898Z,59.31
2023-08-11T08:08:39.338Z,55.98
2023-08-11T08:11:07.290Z,56.52
2023-08-11T08:13:33.727Z,56.15
2023-08-11T08:16:00.243Z,56.15
2023-08-11T08:18:26.887Z,58.13
2023-08-11T08:20:53.436Z,55.54
2023-08-11T08:23:20.182Z,57.51
2023-08-11T08:25:46.663Z,55.55
2023-08-11T08:28:15.041Z,55.71
2023-08-11T08:30:41.494Z,54.85
2023-08-11T08:33:07.995Z,53.23
2023-08-11T08:35:34.609Z,55.17
2023-08-11T08:38:01.071Z,54.89
2023-08-11T08:40:28.828Z,54.70
2023-08-11T08:42:55.739Z,57.27
2023-08-11T08:45:26.652Z,53.90
2023-08-11T08:47:54.528Z,55.33
2023-08-11T08:50:22.788Z,53.24
2023-08-11T08:52:49.852Z,55.70
2023-08-11T08:55:17.028Z,55.21
2023-08-11T08:57:44.055Z,54.93
2023-08-11T09:00:11.430Z,54.31
2023-08-11T09:02:39.862Z,55.10
2023-08-11T09:05:07.786Z,54.50
2023-08-11T09:07:34.219Z,57.07
2023-08-11T09:10:01.662Z,53.45
2023-08-11T09:12:28.130Z,53.70
2023-08-11T09:14:54.668Z,52.80
2023-08-11T09:17:21.645Z,53.50
2023-08-11T09:19:51.306Z,51.88
2023-08-11T09:22:24.295Z,50.62
2023-08-11T09:24:50.962Z,52.58
2023-08-11T09:27:17.425Z,51.38
2023-08-11T09:29:43.906Z,50.61
2023-08-11T09:32:10.668Z,50.24
2023-08-11T09:34:39.560Z,51.37
2023-08-11T09:37:07.414Z,53.96
2023-08-11T09:39:33.867Z,52.83
2023-08-11T09:42:00.339Z,51.27
2023-08-11T09:44:26.826Z,52.32
2023-08-11T09:46:54.707Z,52.28
2023-08-11T09:49:21.427Z,52.11
2023-08-11T09:51:50.085Z,50.33
2023-08-11T09:54:19.265Z,49.25
2023-08-11T09:56:45.862Z,49.06
2023-08-11T09:59:14.968Z,55.65
2023-08-11T10:01:43.970Z,50.29
2023-08-11T10:04:15.680Z,47.93
2023-08-11T10:06:47.550Z,49.16
2023-08-11T10:09:15.645Z,47.76
2023-08-11T10:11:45.224Z,47.21
2023-08-11T10:14:17.864Z,48.71
2023-08-11T10:16:45.895Z,47.68
2023-08-11T10:19:13.557Z,49.36
2023-08-11T10:21:40.582Z,51.65
2023-08-11T10:24:08.295Z,52.39
2023-08-11T10:26:35.049Z,47.32
2023-08-11T10:29:04.465Z,47.26
2023-08-11T10:31:31.689Z,47.32
2023-08-11T10:33:58.363Z,48.95
2023-08-11T10:36:25.134Z,47.45
2023-08-11T10:39:02.035Z,47.37
2023-08-11T10:41:29.095Z,49.64
2023-08-11T10:43:56.733Z,46.87
2023-08-11T10:46:26.114Z,49.41
2023-08-11T10:48:53.675Z,50.52
2023-08-11T10:51:32.073Z,50.30
2023-08-11T10:54:02.373Z,49.71
2023-08-11T10:56:32.150Z,47.97
2023-08-11T10:59:08.346Z,49.33
2023-08-11T11:01:37.905Z,49.10
2023-08-11T11:04:05.564Z,47.35
2023-08-11T11:06:32.249Z,48.51
2023-08-11T11:08:58.692Z,48.34
2023-08-11T11:11:25.471Z,48.76
2023-08-11T11:13:52.676Z,47.63
2023-08-11T11:16:20.349Z,49.43
2023-08-11T11:18:48.595Z,48.89
2023-08-11T11:21:15.395Z,49.00
2023-08-11T11:23:44.797Z,49.97
2023-08-11T11:26:11.278Z,46.21
2023-08-11T11:28:37.960Z,48.72
2023-08-11T11:33:31.375Z,46.46
2023-08-11T11:35:59.456Z,46.59
2023-08-11T11:38:25.945Z,47.39
2023-08-11T11:40:52.395Z,49.42
2023-08-11T11:43:18.916Z,50.45
2023-08-11T11:45:46.323Z,48.05
2023-08-11T11:48:13.180Z,49.52
2023-08-11T11:50:40.242Z,49.28
2023-08-11T11:53:08.526Z,48.37
2023-08-11T11:55:43.603Z,48.65
2023-08-11T11:58:10.099Z,46.05
2023-08-11T12:00:36.540Z,46.16
2023-08-11T12:03:04.084Z,48.39
2023-08-11T12:05:31.169Z,48.87
2023-08-11T12:07:57.652Z,47.60
2023-08-11T12:10:32.470Z,50.57
2023-08-11T12:12:59.670Z,49.23
2023-08-11T12:15:26.976Z,48.26
2023-08-11T12:17:53.746Z,48.14
2023-08-11T12:20:22.186Z,46.09
2023-08-11T12:22:48.653Z,49.64
2023-08-11T12:25:15.204Z,47.52
2023-08-11T12:27:43.068Z,45.94
2023-08-11T12:30:10.433Z,45.34
2023-08-11T12:32:37.170Z,46.54
2023-08-11T12:35:04.098Z,48.16
2023-08-11T12:37:30.530Z,47.33
2023-08-11T12:39:56.996Z,47.56
2023-08-11T12:42:23.542Z,45.10
2023-08-11T12:44:51.322Z,45.93
2023-08-11T12:47:17.784Z,45.62
2023-08-11T12:49:44.230Z,46.02
2023-08-11T12:52:10.844Z,46.04
2023-08-11T12:54:37.656Z,45.96
2023-08-11T12:57:04.690Z,48.62
2023-08-11T12:59:31.852Z,46.59
2023-08-11T13:01:59.952Z,47.92
2023-08-11T13:04:26.388Z,46.19
2023-08-11T13:06:52.864Z,46.45
2023-08-11T13:09:19.322Z,47.02
2023-08-11T13:11:45.775Z,43.90
2023-08-11T13:14:12.219Z,46.82
2023-08-11T13:16:38.719Z,45.97
2023-08-11T13:19:06.805Z,45.70
2023-08-11T13:21:33.614Z,46.29
2023-08-11T13:24:00.876Z,46.58
2023-08-11T13:26:27.584Z,44.96
2023-08-11T13:28:54.143Z,46.21
2023-08-11T13:31:20.658Z,46.13
2023-08-11T13:33:47.123Z,45.18
2023-08-11T13:36:14.918Z,46.11
2023-08-11T13:38:41.721Z,45.71
2023-08-11T13:41:08.459Z,45.81
2023-08-11T13:43:35.758Z,45.16
2023-08-11T13:46:02.421Z,44.56
2023-08-11T13:48:30.822Z,46.88
2023-08-11T13:50:57.955Z,45.53
2023-08-11T13:53:25.790Z,45.83
2023-08-11T13:55:52.239Z,45.71
2023-08-11T13:58:18.729Z,46.42
2023-08-11T14:00:45.396Z,46.83
2023-08-11T14:03:11.921Z,45.31
2023-08-11T14:05:38.441Z,45.50
2023-08-11T14:08:05.044Z,45.73
2023-08-11T14:10:32.822Z,43.96
2023-08-11T14:12:59.274Z,43.14
2023-08-11T14:15:27.042Z,44.76
2023-08-11T14:17:53.636Z,43.51
2023-08-11T14:20:20.179Z,45.12
2023-08-11T14:22:46.628Z,44.38
2023-08-11T14:25:13.096Z,46.09
2023-08-11T14:27:40.895Z,45.17
2023-08-11T14:30:08.744Z,45.36
2023-08-11T14:32:35.485Z,46.56
2023-08-11T14:35:02.104Z,44.47
2023-08-11T14:37:28.596Z,45.22
2023-08-11T14:39:55.024Z,44.73
2023-08-11T14:42:21.652Z,45.55
2023-08-11T14:44:49.802Z,45.37
2023-08-11T14:47:16.319Z,44.95
2023-08-11T14:49:44.271Z,45.66
2023-08-11T14:52:11.302Z,46.01
2023-08-11T14:54:38.476Z,45.01
2023-08-11T14:57:05.028Z,44.55
2023-08-11T14:59:31.546Z,44.02
2023-08-11T15:01:59.468Z,42.78
2023-08-11T15:04:26.042Z,44.05
2023-08-11T15:06:52.527Z,44.81
2023-08-11T15:09:19.012Z,43.88
2023-08-11T15:11:45.460Z,42.51
2023-08-11T15:14:11.988Z,43.59
2023-08-11T15:16:38.486Z,45.34
2023-08-11T15:19:06.364Z,43.00
2023-08-11T15:21:32.829Z,44.26
2023-08-11T15:23:59.359Z,43.62
2023-08-11T15:26:25.864Z,43.61
2023-08-11T15:28:52.362Z,43.48
2023-08-11T15:31:19.065Z,42.64
2023-08-11T15:33:45.548Z,43.62
2023-08-11T15:36:13.376Z,42.88
2023-08-11T15:38:39.841Z,42.08
2023-08-11T15:41:06.280Z,42.86
2023-08-11T15:43:32.939Z,42.00
2023-08-11T15:45:59.581Z,42.98
2023-08-11T15:48:26.172Z,44.17
2023-08-11T15:50:52.981Z,44.54
2023-08-11T15:53:20.758Z,43.57
2023-08-11T15:55:47.235Z,46.06
2023-08-11T15:58:13.808Z,43.53
2023-08-11T16:00:40.273Z,42.61
2023-08-11T16:05:33.266Z,44.21
2023-08-11T16:07:59.791Z,43.02
2023-08-11T16:10:30.400Z,43.63
2023-08-11T16:12:56.884Z,45.04
2023-08-11T16:15:26.027Z,43.88
2023-08-11T16:17:52.595Z,44.05
2023-08-11T16:20:19.213Z,45.28
2023-08-11T16:22:45.688Z,44.56
2023-08-11T16:25:12.157Z,44.65
2023-08-11T16:27:39.959Z,43.70
2023-08-11T16:30:08.082Z,45.42
2023-08-11T16:32:34.547Z,44.54
2023-08-11T16:35:01.033Z,44.01
2023-08-11T16:37:27.465Z,44.30
2023-08-11T16:39:53.911Z,44.53
2023-08-11T16:42:20.364Z,44.05
2023-08-11T16:44:48.120Z,44.70
2023-08-11T16:47:14.553Z,44.70
2023-08-11T16:49:41.058Z,45.31
2023-08-11T16:52:07.871Z,45.31
2023-08-11T16:54:34.751Z,45.36
2023-08-11T16:57:01.536Z,45.88
2023-08-11T16:59:27.979Z,45.24
2023-08-11T17:01:55.787Z,44.56
2023-08-11T17:04:22.277Z,45.76
2023-08-11T17:06:51.245Z,45.27
2023-08-11T17:09:17.983Z,45.85
2023-08-11T17:11:44.484Z,46.70
2023-08-11T17:14:10.950Z,47.15
2023-08-11T17:16:37.532Z,46.15
2023-08-11T17:19:05.591Z,46.56
2023-08-11T17:21:32.048Z,47.83
2023-08-11T17:23:58.506Z,47.51
2023-08-11T17:26:24.961Z,48.03
2023-08-11T17:28:51.792Z,47.46
2023-08-11T17:31:18.257Z,47.19
2023-08-11T17:33:44.713Z,48.73
2023-08-11T17:36:12.486Z,49.28
2023-08-11T17:38:38.938Z,49.90
2023-08-11T17:41:05.483Z,50.52
2023-08-11T17:43:31.926Z,49.92
2023-08-11T17:45:58.674Z,50.21
2023-08-11T17:48:25.243Z,50.27
2023-08-11T17:50:51.708Z,49.79
2023-08-11T17:53:19.486Z,49.84
2023-08-11T17:55:47.494Z,50.52
2023-08-11T17:58:13.943Z,50.47
2023-08-11T18:00:41.872Z,51.31
2023-08-11T18:03:08.958Z,50.46
2023-08-11T18:05:38.040Z,50.53
2023-08-11T18:08:04.805Z,50.61
2023-08-11T18:10:32.663Z,50.88
2023-08-11T18:12:59.128Z,51.39
2023-08-11T18:15:27.254Z,51.50
2023-08-11T18:17:56.781Z,53.00
2023-08-11T18:20:23.245Z,54.57
2023-08-11T18:22:49.699Z,54.83
2023-08-11T18:25:16.325Z,54.56
2023-08-11T18:27:44.132Z,53.77
2023-08-11T18:30:11.783Z,55.23
2023-08-11T18:32:38.372Z,54.90
2023-08-11T18:35:05.773Z,55.62
2023-08-11T18:37:32.246Z,56.35
2023-08-11T18:39:58.757Z,58.38
2023-08-11T18:42:25.239Z,58.66
2023-08-11T18:44:53.290Z,58.23
2023-08-11T18:47:19.767Z,58.32
2023-08-11T18:49:46.225Z,59.33
2023-08-11T18:52:13.133Z,58.54
2023-08-11T18:54:40.027Z,58.12
2023-08-11T18:57:06.477Z,58.64
2023-08-11T18:59:33.072Z,60.55
2023-08-11T19:02:00.871Z,59.00
2023-08-11T19:04:27.447Z,58.63
2023-08-11T19:06:53.885Z,58.79
2023-08-11T19:09:20.507Z,58.12
2023-08-11T19:11:46.959Z,59.88
2023-08-11T19:14:13.409Z,60.88
2023-08-11T19:16:39.990Z,60.79
2023-08-11T19:19:07.757Z,59.59
2023-08-11T19:21:34.260Z,60.79
2023-08-11T19:24:00.735Z,60.07
2023-08-11T19:26:27.171Z,60.90
2023-08-11T19:28:53.616Z,62.13
2023-08-11T19:31:20.115Z,62.77
2023-08-11T19:33:46.575Z,65.60
2023-08-11T19:36:14.484Z,63.89
2023-08-11T19:38:42.221Z,62.54
2023-08-11T19:41:09.338Z,63.19
2023-08-11T19:43:35.904Z,66.00
2023-08-11T19:46:02.427Z,64.76
2023-08-11T19:48:28.901Z,64.54
2023-08-11T19:50:55.338Z,65.66
2023-08-11T19:53:23.542Z,66.17
2023-08-11T19:55:49.998Z,67.27
2023-08-11T19:58:16.537Z,67.22
2023-08-11T20:00:43.405Z,66.89
2023-08-11T20:03:10.371Z,66.24
2023-08-11T20:05:42.581Z,66.97
2023-08-11T20:08:09.210Z,67.02
2023-08-11T20:10:36.990Z,69.89
2023-08-11T20:13:03.768Z,69.54
2023-08-11T20:15:31.980Z,69.21
2023-08-11T20:17:58.454Z,67.59
2023-08-11T20:20:24.966Z,66.88
2023-08-11T20:22:51.438Z,67.13
2023-08-11T20:25:17.892Z,66.84
2023-08-11T20:27:45.732Z,66.89
2023-08-11T20:30:12.460Z,67.96
2023-08-11T20:32:39.042Z,67.43
2023-08-11T20:35:06.394Z,67.62
2023-08-11T20:37:33.268Z,67.88
2023-08-11T20:40:00.097Z,69.16
2023-08-11T20:42:26.608Z,69.30
2023-08-11T20:44:54.634Z,67.29
2023-08-11T20:47:21.069Z,66.59
2023-08-11T20:49:47.603Z,68.71
2023-08-11T20:52:14.089Z,69.32
2023-08-11T20:54:40.579Z,71.22
2023-08-11T20:57:07.000Z,70.02
2023-08-11T20:59:33.638Z,71.47
2023-08-11T21:02:01.616Z,71.16
2023-08-11T21:04:28.229Z,70.65
2023-08-11T21:06:54.818Z,71.56
2023-08-11T21:09:21.291Z,71.56
2023-08-11T21:11:47.772Z,72.28
2023-08-11T21:14:14.285Z,73.12
2023-08-11T21:16:41.906Z,74.24
2023-08-11T21:19:09.750Z,73.70
2023-08-11T21:21:36.406Z,74.06
2023-08-11T21:24:03.138Z,75.00
2023-08-11T21:26:29.683Z,74.55
2023-08-11T21:28:56.148Z,75.69
2023-08-11T21:31:22.614Z,75.91
2023-08-11T21:33:58.976Z,76.85
2023-08-11T21:36:26.766Z,75.69
2023-08-11T21:38:53.230Z,76.16
2023-08-11T21:41:19.777Z,76.18
2023-08-11T21:43:46.266Z,77.15
2023-08-11T21:46:12.724Z,79.00
2023-08-11T21:48:39.270Z,76.19
2023-08-11T21:51:05.700Z,79.32
2023-08-11T21:53:33.492Z,77.61
2023-08-11T21:56:00.010Z,79.69
2023-08-11T21:58:26.521Z,81.82
2023-08-11T22:00:52.969Z,78.84
2023-08-11T22:03:19.540Z,79.12
2023-08-11T22:05:46.208Z,80.11
2023-08-11T22:08:12.659Z,79.81
2023-08-11T22:10:41.882Z,79.27
2023-08-11T22:13:09.662Z,82.20
2023-08-11T22:15:36.170Z,82.31
2023-08-11T22:18:03.046Z,83.08
2023-08-11T22:20:29.610Z,85.35
2023-08-11T22:22:56.072Z,84.36
2023-08-11T22:25:22.964Z,83.85
2023-08-11T22:27:51.352Z,83.39
2023-08-11T22:30:17.972Z,83.41
2023-08-11T22:32:44.467Z,83.45
2023-08-11T22:35:11.751Z,84.22
2023-08-11T22:37:38.202Z,82.40
2023-08-11T22:40:05.655Z,83.06
2023-08-11T22:42:32.110Z,83.91
2023-08-11T22:44:59.891Z,83.97
2023-08-11T22:47:26.403Z,85.04
2023-08-11T22:49:52.892Z,84.69
2023-08-11T22:52:19.351Z,82.64
2023-08-11T22:54:45.862Z,84.50
2023-08-11T22:57:12.512Z,84.67
2023-08-11T22:59:39.148Z,83.34
2023-08-11T23:02:08.100Z,84.22
2023-08-11T23:04:34.626Z,83.73
2023-08-11T23:07:01.095Z,83.78
2023-08-11T23:09:27.561Z,83.69
2023-08-11T23:11:54.060Z,82.53
2023-08-11T23:14:20.513Z,82.93
2023-08-11T23:16:47.155Z,84.92
2023-08-11T23:19:14.938Z,83.95
2023-08-11T23:21:41.376Z,83.17
2023-08-11T23:24:08.089Z,84.62
2023-08-11T23:26:34.552Z,83.57
2023-08-11T23:29:01.020Z,84.85
2023-08-11T23:31:27.921Z,83.87
2023-08-11T23:33:54.434Z,84.09
2023-08-11T23:36:22.233Z,83.34
2023-08-11T23:38:48.731Z,82.80
2023-08-11T23:41:15.341Z,83.72
2023-08-11T23:43:41.787Z,82.73
2023-08-11T23:46:08.414Z,83.92
2023-08-11T23:48:35.124Z,83.39
2023-08-11T23:51:01.595Z,82.44
2023-08-11T23:53:29.392Z,82.79
2023-08-11T23:55:55.879Z,83.27
2023-08-11T23:58:22.334Z,82.50
